AMX229 MMGL-MMPR
Flight info
| Callsign | AMX229 |
|---|---|
| Flight time | 0h 22m |
| Altitude | 20000 |
| Route | NOTUP1E NOTUP NOTUP1B |
| Aircraft | B752/M-SDE2E3FGHIJ3J4J7RWXY/LB1 |
Departure
| Time | 2026-04-21 20:46 |
|---|---|
| Airport | Guadalajara International Airport (MMGL) |
Arrival
| Time | 2026-04-21 21:09 |
|---|---|
| Airport | Puerto Vallarta International Airport (MMPR) |
| Time | Latitude | Longitude | Altitude | Speed | Heading |
|---|---|---|---|---|---|
| 2026-04-21 20:27 | 20.52344 | -103.29826 | 5028 ft | 0 kts | 18° |
| 2026-04-21 20:36 | 20.52326 | -103.29832 | 5028 ft | 3 kts | 9° |
| 2026-04-21 20:37 | 20.52310 | -103.29829 | 5028 ft | 1 kts | 12° |
| 2026-04-21 20:37 | 20.52301 | -103.29837 | 5028 ft | 2 kts | 64° |
| 2026-04-21 20:37 | 20.52294 | -103.29851 | 5028 ft | 2 kts | 76° |
| 2026-04-21 20:37 | 20.52294 | -103.29868 | 5028 ft | 2 kts | 103° |
| 2026-04-21 20:38 | 20.52297 | -103.29876 | 5028 ft | 1 kts | 120° |
| 2026-04-21 20:38 | 20.52299 | -103.29880 | 5028 ft | 0 kts | 117° |
| 2026-04-21 20:42 | 20.52292 | -103.29867 | 5028 ft | 5 kts | 118° |
| 2026-04-21 20:42 | 20.52261 | -103.29804 | 5028 ft | 13 kts | 119° |
| 2026-04-21 20:43 | 20.52183 | -103.29771 | 5028 ft | 11 kts | 193° |
| 2026-04-21 20:43 | 20.52112 | -103.29795 | 5029 ft | 9 kts | 200° |
| 2026-04-21 20:43 | 20.52061 | -103.29798 | 5029 ft | 6 kts | 178° |
| 2026-04-21 20:43 | 20.52043 | -103.29793 | 5029 ft | 0 kts | 139° |
| 2026-04-21 20:44 | 20.52017 | -103.29764 | 5029 ft | 7 kts | 118° |
| 2026-04-21 20:44 | 20.51995 | -103.29713 | 5029 ft | 0 kts | 115° |
| 2026-04-21 20:44 | 20.51966 | -103.29649 | 5029 ft | 29 kts | 118° |
| 2026-04-21 20:44 | 20.51874 | -103.29559 | 5029 ft | 0 kts | 232° |
| 2026-04-21 20:45 | 20.51864 | -103.29570 | 5029 ft | 6 kts | 222° |
| 2026-04-21 20:45 | 20.51825 | -103.29639 | 5029 ft | 10 kts | 257° |
| 2026-04-21 20:45 | 20.51840 | -103.29684 | 5029 ft | 6 kts | 299° |
| 2026-04-21 20:45 | 20.51885 | -103.29784 | 5029 ft | 39 kts | 293° |
| 2026-04-21 20:46 | 20.52101 | -103.30290 | 5031 ft | 107 kts | 294° |
| 2026-04-21 20:46 | 20.52490 | -103.31218 | 5034 ft | 167 kts | 294° |
| 2026-04-21 20:46 | 20.53019 | -103.32479 | 5438 ft | 189 kts | 296° |
| 2026-04-21 20:46 | 20.53727 | -103.33601 | 6337 ft | 185 kts | 307° |
| 2026-04-21 20:47 | 20.54348 | -103.34852 | 6775 ft | 202 kts | 288° |
| 2026-04-21 20:47 | 20.54856 | -103.36343 | 7230 ft | 223 kts | 290° |
| 2026-04-21 20:47 | 20.55448 | -103.37933 | 7794 ft | 239 kts | 291° |
| 2026-04-21 20:47 | 20.55886 | -103.39098 | 8199 ft | 250 kts | 292° |
| 2026-04-21 20:48 | 20.56335 | -103.40276 | 8739 ft | 254 kts | 292° |
| 2026-04-21 20:48 | 20.57004 | -103.42017 | 9661 ft | 255 kts | 292° |
| 2026-04-21 20:48 | 20.57682 | -103.43778 | 10533 ft | 256 kts | 292° |
| 2026-04-21 20:48 | 20.58365 | -103.45543 | 11238 ft | 264 kts | 292° |
| 2026-04-21 20:49 | 20.59034 | -103.47447 | 11682 ft | 283 kts | 290° |
| 2026-04-21 20:49 | 20.59731 | -103.49493 | 12096 ft | 302 kts | 290° |
| 2026-04-21 20:49 | 20.60474 | -103.51662 | 12467 ft | 322 kts | 290° |
| 2026-04-21 20:49 | 20.61268 | -103.53980 | 12822 ft | 342 kts | 290° |
| 2026-04-21 20:50 | 20.62110 | -103.56439 | 13134 ft | 361 kts | 291° |
| 2026-04-21 20:50 | 20.62988 | -103.59006 | 13399 ft | 379 kts | 290° |
| 2026-04-21 20:50 | 20.63919 | -103.61728 | 13887 ft | 388 kts | 290° |
| 2026-04-21 20:50 | 20.64843 | -103.64435 | 14620 ft | 390 kts | 290° |
| 2026-04-21 20:51 | 20.65779 | -103.67176 | 15199 ft | 395 kts | 289° |
| 2026-04-21 20:51 | 20.66722 | -103.69939 | 15891 ft | 397 kts | 289° |
| 2026-04-21 20:51 | 20.67678 | -103.72743 | 16450 ft | 401 kts | 289° |
| 2026-04-21 20:51 | 20.68636 | -103.75556 | 17032 ft | 405 kts | 289° |
| 2026-04-21 20:52 | 20.69606 | -103.78404 | 17606 ft | 408 kts | 289° |
| 2026-04-21 20:52 | 20.70567 | -103.81229 | 18259 ft | 409 kts | 289° |
| 2026-04-21 20:52 | 20.71543 | -103.84098 | 18839 ft | 412 kts | 289° |
| 2026-04-21 20:52 | 20.72521 | -103.86977 | 19620 ft | 409 kts | 290° |
| 2026-04-21 20:53 | 20.73494 | -103.89841 | 20286 ft | 408 kts | 290° |
| 2026-04-21 20:53 | 20.74455 | -103.92671 | 20298 ft | 404 kts | 290° |
| 2026-04-21 20:53 | 20.75395 | -103.95444 | 20289 ft | 387 kts | 290° |
| 2026-04-21 20:53 | 20.76300 | -103.98113 | 20277 ft | 380 kts | 290° |
| 2026-04-21 20:54 | 20.77208 | -104.00788 | 20277 ft | 383 kts | 290° |
| 2026-04-21 20:54 | 20.78122 | -104.03488 | 20281 ft | 386 kts | 290° |
| 2026-04-21 20:54 | 20.79039 | -104.06197 | 20288 ft | 389 kts | 290° |
| 2026-04-21 20:54 | 20.79969 | -104.08942 | 20289 ft | 400 kts | 290° |
| 2026-04-21 20:55 | 20.80916 | -104.11742 | 20280 ft | 404 kts | 290° |
| 2026-04-21 20:55 | 20.81877 | -104.14587 | 20278 ft | 402 kts | 290° |
| 2026-04-21 20:55 | 20.82829 | -104.17407 | 20276 ft | 402 kts | 290° |
| 2026-04-21 20:55 | 20.83779 | -104.20234 | 20271 ft | 402 kts | 289° |
| 2026-04-21 20:56 | 20.84454 | -104.23142 | 20267 ft | 403 kts | 278° |
| 2026-04-21 20:56 | 20.84613 | -104.26125 | 20112 ft | 406 kts | 269° |
| 2026-04-21 20:56 | 20.84315 | -104.29130 | 19314 ft | 395 kts | 261° |
| 2026-04-21 20:56 | 20.83876 | -104.32000 | 18598 ft | 390 kts | 261° |
| 2026-04-21 20:57 | 20.83441 | -104.34832 | 17895 ft | 390 kts | 261° |
| 2026-04-21 20:57 | 20.82991 | -104.37682 | 17185 ft | 385 kts | 261° |
| 2026-04-21 20:57 | 20.82541 | -104.40501 | 16474 ft | 381 kts | 261° |
| 2026-04-21 20:57 | 20.82117 | -104.43283 | 15767 ft | 379 kts | 265° |
| 2026-04-21 20:58 | 20.82168 | -104.46083 | 15199 ft | 372 kts | 277° |
| 2026-04-21 20:58 | 20.82458 | -104.48807 | 14890 ft | 374 kts | 276° |
| 2026-04-21 20:58 | 20.82742 | -104.51573 | 14538 ft | 375 kts | 276° |
| 2026-04-21 20:58 | 20.83036 | -104.54354 | 14158 ft | 371 kts | 276° |
| 2026-04-21 20:59 | 20.83327 | -104.57073 | 13775 ft | 369 kts | 277° |
| 2026-04-21 20:59 | 20.83622 | -104.59805 | 13381 ft | 368 kts | 276° |
| 2026-04-21 20:59 | 20.83915 | -104.62521 | 12962 ft | 367 kts | 276° |
| 2026-04-21 20:59 | 20.84209 | -104.65240 | 12362 ft | 365 kts | 276° |
| 2026-04-21 21:00 | 20.84494 | -104.67878 | 11968 ft | 343 kts | 276° |
| 2026-04-21 21:00 | 20.84757 | -104.70315 | 11423 ft | 322 kts | 276° |
| 2026-04-21 21:00 | 20.85006 | -104.72619 | 10959 ft | 302 kts | 276° |
| 2026-04-21 21:00 | 20.85241 | -104.74792 | 10526 ft | 284 kts | 276° |
| 2026-04-21 21:01 | 20.85460 | -104.76820 | 10080 ft | 271 kts | 276° |
| 2026-04-21 21:01 | 20.85676 | -104.78836 | 9650 ft | 276 kts | 276° |
| 2026-04-21 21:01 | 20.85897 | -104.80898 | 9226 ft | 280 kts | 276° |
| 2026-04-21 21:01 | 20.86118 | -104.82958 | 8798 ft | 279 kts | 276° |
| 2026-04-21 21:02 | 20.86339 | -104.85008 | 8357 ft | 278 kts | 276° |
| 2026-04-21 21:02 | 20.86560 | -104.87071 | 7974 ft | 282 kts | 276° |
| 2026-04-21 21:02 | 20.86783 | -104.89156 | 7503 ft | 281 kts | 276° |
| 2026-04-21 21:02 | 20.87005 | -104.91233 | 7041 ft | 281 kts | 276° |
| 2026-04-21 21:03 | 20.87227 | -104.93315 | 6575 ft | 284 kts | 276° |
| 2026-04-21 21:03 | 20.87452 | -104.95429 | 6094 ft | 286 kts | 276° |
| 2026-04-21 21:03 | 20.87675 | -104.97519 | 5857 ft | 279 kts | 276° |
| 2026-04-21 21:03 | 20.87871 | -104.99571 | 5681 ft | 269 kts | 269° |
| 2026-04-21 21:04 | 20.87491 | -105.01457 | 5531 ft | 257 kts | 241° |
| 2026-04-21 21:04 | 20.86450 | -105.02998 | 5119 ft | 256 kts | 229° |
| 2026-04-21 21:04 | 20.85329 | -105.04391 | 5043 ft | 232 kts | 229° |
| 2026-04-21 21:04 | 20.84230 | -105.05727 | 5135 ft | 248 kts | 227° |
| 2026-04-21 21:05 | 20.83057 | -105.07115 | 5067 ft | 251 kts | 227° |
| 2026-04-21 21:05 | 20.81895 | -105.08473 | 5083 ft | 241 kts | 226° |
| 2026-04-21 21:05 | 20.80785 | -105.09761 | 5070 ft | 232 kts | 226° |
| 2026-04-21 21:05 | 20.79646 | -105.11075 | 3638 ft | 272 kts | 226° |
| 2026-04-21 21:06 | 20.78293 | -105.12631 | 1992 ft | 297 kts | 227° |
| 2026-04-21 21:06 | 20.76999 | -105.14119 | 1748 ft | 243 kts | 227° |
| 2026-04-21 21:06 | 20.75975 | -105.15298 | 1709 ft | 192 kts | 227° |
| 2026-04-21 21:06 | 20.75190 | -105.16301 | 1611 ft | 156 kts | 227° |
| 2026-04-21 21:07 | 20.74527 | -105.17088 | 1632 ft | 140 kts | 228° |
| 2026-04-21 21:07 | 20.73861 | -105.17990 | 1885 ft | 164 kts | 232° |
| 2026-04-21 21:07 | 20.73112 | -105.18998 | 1759 ft | 175 kts | 226° |
| 2026-04-21 21:07 | 20.72282 | -105.19868 | 1537 ft | 162 kts | 226° |
| 2026-04-21 21:08 | 20.71567 | -105.20820 | 1040 ft | 163 kts | 230° |
| 2026-04-21 21:08 | 20.70951 | -105.21792 | 748 ft | 149 kts | 239° |
| 2026-04-21 21:08 | 20.70404 | -105.22744 | 651 ft | 153 kts | 233° |
| 2026-04-21 21:08 | 20.69655 | -105.23549 | 377 ft | 152 kts | 225° |
| 2026-04-21 21:09 | 20.68943 | -105.24344 | 81 ft | 141 kts | 230° |
| 2026-04-21 21:09 | 20.68314 | -105.25088 | 42 ft | 123 kts | 223° |
| 2026-04-21 21:09 | 20.67956 | -105.25481 | 37 ft | 43 kts | 224° |
| 2026-04-21 21:09 | 20.67703 | -105.25639 | 36 ft | 30 kts | 192° |
| 2026-04-21 21:10 | 20.67614 | -105.25620 | 36 ft | 9 kts | 69° |